Terminal Aerodrome Forecast
Issued by NWS

Home | Current Version | Previous Version | Text Only | Print | Product List | Glossary On
Versions: 1 2 3 4 5 6 7 8 9 10 11 12 13 14 15
000
FTUS45 KABQ 290527
TAFTCC
TAF
KTCC 290527Z 2906/3006 03015KT P6SM OVC012
     FM291600 34007KT P6SM BKN025
     FM291900 33011KT P6SM VCSH BKN050
     FM300000 06009KT P6SM OVC050=

USA.gov is the U.S. government's official web portal to all federal, state and local government web resources and services.